Terminal Aerodrome Forecast
Issued by NWS Newport/Morehead City, NC

Home | Current Version | Previous Version | Text Only | Print | Product List | Glossary Off
Versions: 1 2 3 4 5 6 7 8 9 10 11 12 13 14 15

000
FTUS42 KMHX 181416 AAA
TAFEWN
TAF AMD
KEWN 181416Z 1814/1912 25010KT 6SM -SHRA OVC090
     FM181700 29011KT 6SM -SHRA SCT040 BKN090
     FM182000 31010KT P6SM FEW250=

USA.gov is the U.S. government's official web portal to all federal, state and local government web resources and services.